createdAt,value
2018-07-23T00:00:15.208Z,0
2018-07-23T00:00:55.781Z,0
2018-07-23T00:01:36.355Z,0
2018-07-23T00:02:16.923Z,0
2018-07-23T00:02:57.479Z,0
2018-07-23T00:03:38.040Z,0
2018-07-23T00:04:18.610Z,0
2018-07-23T00:04:59.179Z,0
2018-07-23T00:05:39.748Z,0
2018-07-23T00:06:20.324Z,0
2018-07-23T00:07:00.887Z,0
2018-07-23T00:07:41.446Z,0
2018-07-23T00:08:22.024Z,0
2018-07-23T00:09:02.557Z,0
2018-07-23T00:09:43.134Z,0
2018-07-23T00:10:23.711Z,0
2018-07-23T00:11:04.272Z,0
2018-07-23T00:11:44.835Z,0
2018-07-23T00:12:25.403Z,0
2018-07-23T00:13:05.959Z,0
2018-07-23T00:13:46.532Z,0
2018-07-23T00:14:27.100Z,0
2018-07-23T00:15:07.669Z,0
2018-07-23T00:15:48.230Z,0
2018-07-23T00:16:28.797Z,0
2018-07-23T00:17:09.422Z,0
2018-07-23T00:17:49.963Z,0
2018-07-23T00:18:30.535Z,0
2018-07-23T00:19:11.091Z,0
2018-07-23T00:19:51.653Z,0
2018-07-23T00:20:32.210Z,0
2018-07-23T00:21:12.763Z,0
2018-07-23T00:21:53.325Z,0
2018-07-23T00:22:33.897Z,0
2018-07-23T00:23:14.466Z,0
2018-07-23T00:23:55.052Z,0
2018-07-23T00:24:35.597Z,0
2018-07-23T00:25:16.153Z,0
2018-07-23T00:25:56.722Z,0
2018-07-23T00:26:37.295Z,0
2018-07-23T00:27:17.864Z,0
2018-07-23T00:27:58.418Z,0
2018-07-23T00:28:38.978Z,0
2018-07-23T00:29:19.554Z,0
2018-07-23T00:30:00.156Z,0
2018-07-23T00:30:40.717Z,0
2018-07-23T00:31:21.277Z,0
2018-07-23T00:32:01.847Z,0
2018-07-23T00:32:42.424Z,0
2018-07-23T00:33:22.987Z,0
2018-07-23T00:34:03.555Z,0
2018-07-23T00:34:44.124Z,0
2018-07-23T00:35:24.696Z,0
2018-07-23T00:36:05.259Z,0
2018-07-23T00:36:45.880Z,0
2018-07-23T00:37:26.437Z,0
2018-07-23T00:38:07.025Z,0
2018-07-23T00:38:47.591Z,0
2018-07-23T00:39:28.168Z,0
2018-07-23T00:40:08.728Z,0
2018-07-23T00:40:49.291Z,0
2018-07-23T00:41:29.843Z,0
2018-07-23T00:42:10.432Z,0
2018-07-23T00:42:51.001Z,0
2018-07-23T00:43:31.566Z,0
2018-07-23T00:44:12.137Z,0
2018-07-23T00:44:52.696Z,0
2018-07-23T00:45:33.268Z,0
2018-07-23T00:46:13.859Z,0
2018-07-23T00:46:54.415Z,0
2018-07-23T00:47:34.995Z,0
2018-07-23T00:48:15.554Z,0
2018-07-23T00:48:56.130Z,0
2018-07-23T00:49:36.704Z,0
2018-07-23T00:50:17.281Z,0
2018-07-23T00:50:57.889Z,0
2018-07-23T00:51:38.485Z,0
2018-07-23T00:52:19.052Z,0
2018-07-23T00:52:59.623Z,0
2018-07-23T00:53:40.193Z,0
2018-07-23T00:54:20.753Z,0
2018-07-23T00:55:01.324Z,0
2018-07-23T00:55:41.898Z,0
2018-07-23T00:56:22.436Z,0
2018-07-23T00:57:03.005Z,0
2018-07-23T00:57:43.575Z,0
2018-07-23T00:58:24.140Z,0
2018-07-23T00:59:04.709Z,0
2018-07-23T00:59:45.292Z,0
2018-07-23T01:00:25.853Z,0
2018-07-23T01:01:06.432Z,0
2018-07-23T01:01:47.006Z,0
2018-07-23T01:02:27.580Z,0
2018-07-23T01:03:08.156Z,0
2018-07-23T01:03:48.700Z,0
2018-07-23T01:04:29.273Z,0
2018-07-23T01:05:09.873Z,0
2018-07-23T01:05:50.456Z,0
2018-07-23T01:06:31.050Z,0
2018-07-23T01:07:11.615Z,0
2018-07-23T01:07:52.159Z,0
2018-07-23T01:08:32.728Z,0
2018-07-23T01:09:13.285Z,0
2018-07-23T01:09:53.848Z,0
2018-07-23T01:10:34.421Z,0
2018-07-23T01:11:14.983Z,0
2018-07-23T01:11:55.543Z,0
2018-07-23T01:12:36.118Z,0
2018-07-23T01:13:16.679Z,0
2018-07-23T01:13:57.240Z,0
2018-07-23T01:14:37.802Z,0
2018-07-23T01:15:18.342Z,0
2018-07-23T01:15:58.919Z,0
2018-07-23T01:16:39.472Z,0
2018-07-23T01:17:20.019Z,0
2018-07-23T01:18:00.586Z,0
2018-07-23T01:18:41.156Z,0
2018-07-23T01:19:21.774Z,0
2018-07-23T01:20:02.336Z,0
2018-07-23T01:20:42.880Z,0
2018-07-23T01:21:23.432Z,0
2018-07-23T01:22:04.006Z,0
2018-07-23T01:22:44.583Z,0
2018-07-23T01:23:25.153Z,0
2018-07-23T01:24:05.710Z,0
2018-07-23T01:24:46.266Z,0
2018-07-23T01:25:26.828Z,0
2018-07-23T01:26:07.381Z,0
2018-07-23T01:26:47.937Z,0
2018-07-23T01:27:28.488Z,0
2018-07-23T01:28:09.058Z,0
2018-07-23T01:28:49.650Z,0
2018-07-23T01:29:30.221Z,0
2018-07-23T01:30:10.784Z,0
2018-07-23T01:30:51.338Z,0
2018-07-23T01:31:31.895Z,0
2018-07-23T01:32:12.438Z,0
2018-07-23T01:32:52.998Z,0
2018-07-23T01:33:33.539Z,0
2018-07-23T01:34:14.090Z,0
2018-07-23T01:34:54.653Z,0
2018-07-23T01:35:35.221Z,0
2018-07-23T01:36:15.814Z,0
2018-07-23T01:36:56.363Z,0
2018-07-23T01:37:36.923Z,0
2018-07-23T01:38:17.496Z,0
2018-07-23T01:38:58.059Z,0
2018-07-23T01:39:38.632Z,0
2018-07-23T01:40:19.186Z,0
2018-07-23T01:40:59.768Z,0
2018-07-23T01:41:40.348Z,0
2018-07-23T01:42:20.902Z,0
2018-07-23T01:43:01.469Z,0
2018-07-23T01:43:42.043Z,0
2018-07-23T01:44:22.606Z,0
2018-07-23T01:45:03.172Z,0
2018-07-23T01:45:43.743Z,0
2018-07-23T01:46:24.306Z,0
2018-07-23T01:47:04.876Z,0
2018-07-23T01:47:45.415Z,0
2018-07-23T01:48:25.983Z,0
2018-07-23T01:49:06.534Z,0
2018-07-23T01:49:47.085Z,0
2018-07-23T01:50:27.697Z,0
2018-07-23T01:51:08.264Z,0
2018-07-23T01:51:48.816Z,0
2018-07-23T01:52:29.365Z,0
2018-07-23T01:53:09.934Z,0
2018-07-23T01:53:50.512Z,0
2018-07-23T01:54:31.070Z,0
2018-07-23T01:55:11.651Z,0
2018-07-23T01:55:52.227Z,0
2018-07-23T01:56:32.776Z,0
2018-07-23T01:57:13.337Z,0
2018-07-23T01:57:53.953Z,0
2018-07-23T01:58:34.480Z,0
2018-07-23T01:59:15.051Z,0
2018-07-23T01:59:55.626Z,0
2018-07-23T02:00:36.184Z,0
2018-07-23T02:01:16.755Z,0
2018-07-23T02:01:57.304Z,0
2018-07-23T02:02:37.863Z,0
2018-07-23T02:03:18.459Z,0
2018-07-23T02:03:59.046Z,0
2018-07-23T02:04:39.624Z,0
2018-07-23T02:05:20.198Z,0
2018-07-23T02:06:00.770Z,0
2018-07-23T02:06:41.367Z,0
2018-07-23T02:07:22.030Z,0
2018-07-23T02:08:02.625Z,0
2018-07-23T02:08:43.296Z,0
2018-07-23T02:09:23.923Z,0
2018-07-23T02:10:04.516Z,0
2018-07-23T02:10:45.146Z,0
2018-07-23T02:11:25.844Z,0
2018-07-23T02:12:06.385Z,0
2018-07-23T02:12:46.971Z,0
2018-07-23T02:13:27.556Z,0
2018-07-23T02:14:09.176Z,0
2018-07-23T02:14:49.738Z,0
2018-07-23T02:15:30.302Z,0
2018-07-23T02:16:10.863Z,0
2018-07-23T02:16:51.415Z,0
2018-07-23T02:17:31.963Z,0
2018-07-23T02:18:12.570Z,0
2018-07-23T02:18:53.108Z,0
2018-07-23T02:19:33.674Z,0
2018-07-23T02:20:14.242Z,0
2018-07-23T02:20:54.838Z,0
2018-07-23T02:21:35.386Z,0
2018-07-23T02:22:15.947Z,0
2018-07-23T02:22:56.501Z,0
2018-07-23T02:23:37.067Z,0
2018-07-23T02:24:17.630Z,0
2018-07-23T02:24:58.238Z,0
2018-07-23T02:25:38.796Z,0
2018-07-23T02:26:19.400Z,0
2018-07-23T02:26:59.957Z,0
2018-07-23T02:27:40.522Z,0
2018-07-23T02:28:21.084Z,0
2018-07-23T02:29:01.664Z,0
2018-07-23T02:29:42.209Z,0
2018-07-23T02:30:22.782Z,0
2018-07-23T02:31:03.364Z,0
2018-07-23T02:31:43.932Z,0
2018-07-23T02:32:24.489Z,0
2018-07-23T02:33:05.063Z,0
2018-07-23T02:33:45.620Z,0
2018-07-23T02:34:26.185Z,4
2018-07-23T02:35:06.752Z,4
2018-07-23T02:35:47.342Z,4
2018-07-23T02:36:27.901Z,0
2018-07-23T02:37:08.474Z,0
2018-07-23T02:37:49.028Z,0
2018-07-23T02:38:29.601Z,4
2018-07-23T02:39:10.158Z,4
2018-07-23T02:39:50.719Z,4
2018-07-23T02:40:31.293Z,0
2018-07-23T02:41:11.864Z,4
2018-07-23T02:41:52.432Z,4
2018-07-23T02:42:33.007Z,4
2018-07-23T02:43:13.628Z,4
2018-07-23T02:43:54.161Z,4
2018-07-23T02:44:34.702Z,4
2018-07-23T02:45:15.265Z,4
2018-07-23T02:45:55.825Z,4
2018-07-23T02:46:36.423Z,8
2018-07-23T02:47:17.003Z,8
2018-07-23T02:47:57.579Z,8
2018-07-23T02:48:38.138Z,8
2018-07-23T02:49:18.695Z,12
2018-07-23T02:49:59.281Z,12
2018-07-23T02:50:39.848Z,8
2018-07-23T02:51:20.411Z,8
2018-07-23T02:52:00.975Z,16
2018-07-23T02:52:41.543Z,16
2018-07-23T02:53:22.119Z,16
2018-07-23T02:54:02.688Z,16
2018-07-23T02:54:43.261Z,20
2018-07-23T02:55:23.816Z,20
2018-07-23T02:56:04.385Z,20
2018-07-23T02:56:44.948Z,24
2018-07-23T02:57:25.523Z,24
2018-07-23T02:58:06.115Z,28
2018-07-23T02:58:46.695Z,28
2018-07-23T02:59:27.316Z,28
2018-07-23T03:00:07.845Z,32
2018-07-23T03:00:48.418Z,36
2018-07-23T03:01:28.992Z,36
2018-07-23T03:02:09.554Z,36
2018-07-23T03:02:50.136Z,40
2018-07-23T03:03:30.681Z,44
2018-07-23T03:04:11.252Z,48
2018-07-23T03:04:51.827Z,48
2018-07-23T03:05:32.393Z,52
2018-07-23T03:06:12.965Z,56
2018-07-23T03:06:53.534Z,60
2018-07-23T03:07:34.097Z,60
2018-07-23T03:08:14.674Z,68
2018-07-23T03:08:55.238Z,68
2018-07-23T03:09:35.804Z,72
2018-07-23T03:10:16.368Z,80
2018-07-23T03:10:56.965Z,84
2018-07-23T03:11:37.472Z,88
2018-07-23T03:12:18.052Z,92
2018-07-23T03:12:58.618Z,96
2018-07-23T03:13:39.200Z,100
2018-07-23T03:14:19.758Z,104
2018-07-23T03:15:00.315Z,112
2018-07-23T03:15:40.879Z,116
2018-07-23T03:16:21.433Z,120
2018-07-23T03:17:02.002Z,124
2018-07-23T03:17:42.572Z,132
2018-07-23T03:18:23.150Z,136
2018-07-23T03:19:03.729Z,148
2018-07-23T03:19:44.288Z,152
2018-07-23T03:20:24.867Z,156
2018-07-23T03:21:05.431Z,168
2018-07-23T03:21:46.049Z,172
2018-07-23T03:22:26.591Z,180
2018-07-23T03:23:07.122Z,184
2018-07-23T03:23:47.685Z,192
2018-07-23T03:24:28.252Z,200
2018-07-23T03:25:08.814Z,204
2018-07-23T03:25:49.397Z,208
2018-07-23T03:26:29.957Z,216
2018-07-23T03:27:10.530Z,220
2018-07-23T03:27:51.084Z,224
2018-07-23T03:28:31.647Z,228
2018-07-23T03:29:12.208Z,236
2018-07-23T03:29:52.790Z,240
2018-07-23T03:30:33.380Z,248
2018-07-23T03:31:13.950Z,260
2018-07-23T03:31:54.519Z,264
2018-07-23T03:32:35.074Z,272
2018-07-23T03:33:15.644Z,280
2018-07-23T03:33:56.204Z,292
2018-07-23T03:34:36.775Z,300
2018-07-23T03:35:17.337Z,312
2018-07-23T03:35:57.907Z,320
2018-07-23T03:36:38.480Z,332
2018-07-23T03:37:19.066Z,340
2018-07-23T03:37:59.632Z,356
2018-07-23T03:38:40.193Z,368
2018-07-23T03:39:20.750Z,380
2018-07-23T03:40:01.325Z,392
2018-07-23T03:40:41.896Z,404
2018-07-23T03:41:22.465Z,416
2018-07-23T03:42:03.022Z,432
2018-07-23T03:42:43.594Z,448
2018-07-23T03:43:24.153Z,464
2018-07-23T03:44:04.711Z,480
2018-07-23T03:44:45.273Z,504
2018-07-23T03:45:25.842Z,524
2018-07-23T03:46:06.424Z,540
2018-07-23T03:46:47.002Z,564
2018-07-23T03:47:27.567Z,580
2018-07-23T03:48:08.123Z,596
2018-07-23T03:48:48.689Z,612
2018-07-23T03:49:29.261Z,624
2018-07-23T03:50:09.833Z,648
2018-07-23T03:50:50.392Z,664
2018-07-23T03:51:30.964Z,688
2018-07-23T03:52:11.542Z,716
2018-07-23T03:52:52.108Z,740
2018-07-23T03:53:32.672Z,764
2018-07-23T03:54:13.237Z,792
2018-07-23T03:54:53.800Z,816
2018-07-23T03:55:34.361Z,844
2018-07-23T03:56:14.932Z,868
2018-07-23T03:56:55.486Z,892
2018-07-23T03:57:36.065Z,912
2018-07-23T03:58:16.630Z,936
2018-07-23T03:58:57.203Z,960
2018-07-23T03:59:37.767Z,984
2018-07-23T04:00:18.336Z,1004
2018-07-23T04:00:58.899Z,1032
2018-07-23T04:01:39.443Z,1060
2018-07-23T04:02:20.026Z,1088
2018-07-23T04:03:00.592Z,1120
2018-07-23T04:03:41.165Z,1144
2018-07-23T04:04:21.745Z,1164
2018-07-23T04:05:02.305Z,1184
2018-07-23T04:05:42.938Z,1200
2018-07-23T04:06:23.503Z,1212
2018-07-23T04:07:04.056Z,1228
2018-07-23T04:07:44.638Z,1244
2018-07-23T04:08:25.208Z,1256
2018-07-23T04:09:05.777Z,1268
2018-07-23T04:09:46.348Z,1272
2018-07-23T04:10:27.271Z,1284
2018-07-23T04:11:07.908Z,1300
2018-07-23T04:11:48.481Z,1320
2018-07-23T04:12:29.069Z,1336
2018-07-23T04:13:09.613Z,1352
2018-07-23T04:13:50.262Z,1376
2018-07-23T04:14:30.824Z,1396
2018-07-23T04:15:11.400Z,1420
2018-07-23T04:15:51.969Z,1448
2018-07-23T04:16:32.536Z,1480
2018-07-23T04:17:13.094Z,1516
2018-07-23T04:17:53.670Z,1552
2018-07-23T04:18:34.238Z,1588
2018-07-23T04:19:14.809Z,1628
2018-07-23T04:19:55.370Z,1672
2018-07-23T04:20:35.938Z,1720
2018-07-23T04:21:16.537Z,1772
2018-07-23T04:21:57.107Z,1820
2018-07-23T04:22:37.667Z,1876
2018-07-23T04:23:18.222Z,1924
2018-07-23T04:23:58.827Z,1976
2018-07-23T04:24:39.382Z,2024
2018-07-23T04:25:19.939Z,2064
2018-07-23T04:26:00.493Z,2108
2018-07-23T04:26:41.066Z,2152
2018-07-23T04:27:21.631Z,2200
2018-07-23T04:28:02.202Z,2248
2018-07-23T04:28:42.773Z,2300
2018-07-23T04:29:23.340Z,2348
2018-07-23T04:30:03.897Z,2400
2018-07-23T04:30:44.449Z,2456
2018-07-23T04:31:25.018Z,2508
2018-07-23T04:32:05.603Z,2568
2018-07-23T04:32:46.191Z,2624
2018-07-23T04:33:26.762Z,2688
2018-07-23T04:34:07.417Z,2748
2018-07-23T04:34:48.028Z,2808
2018-07-23T04:35:28.603Z,2860
2018-07-23T04:36:09.165Z,2904
2018-07-23T04:36:49.740Z,2948
2018-07-23T04:37:30.304Z,2988
2018-07-23T04:38:10.848Z,3032
2018-07-23T04:38:51.421Z,3072
2018-07-23T04:39:31.989Z,3120
2018-07-23T04:40:12.546Z,3168
2018-07-23T04:40:53.113Z,3208
2018-07-23T04:41:33.704Z,3252
2018-07-23T04:42:14.282Z,3296
2018-07-23T04:42:54.829Z,3340
2018-07-23T04:43:35.398Z,3380
2018-07-23T04:44:15.955Z,3424
2018-07-23T04:44:56.520Z,3464
2018-07-23T04:45:37.097Z,3500
2018-07-23T04:46:17.697Z,3532
2018-07-23T04:46:58.237Z,3568
2018-07-23T04:47:38.805Z,3604
2018-07-23T04:48:19.359Z,3636
2018-07-23T04:48:59.911Z,3676
2018-07-23T04:49:40.468Z,3712
2018-07-23T04:50:21.039Z,3744
2018-07-23T04:51:01.630Z,3776
2018-07-23T04:51:42.181Z,3808
2018-07-23T04:52:22.741Z,3836
2018-07-23T04:53:03.289Z,3868
2018-07-23T04:53:43.848Z,3904
2018-07-23T04:54:24.491Z,3940
2018-07-23T04:55:05.054Z,3972
2018-07-23T04:55:45.619Z,4016
2018-07-23T04:56:26.173Z,4056
2018-07-23T04:57:06.740Z,4104
2018-07-23T04:57:47.294Z,4144
2018-07-23T04:58:27.868Z,4188
2018-07-23T04:59:08.438Z,4232
2018-07-23T04:59:48.998Z,4280
2018-07-23T05:00:29.584Z,4316
2018-07-23T05:01:10.171Z,4360
2018-07-23T05:01:50.722Z,4392
2018-07-23T05:02:31.287Z,4436
2018-07-23T05:03:11.863Z,4472
2018-07-23T05:03:52.422Z,4508
2018-07-23T05:04:33.004Z,4548
2018-07-23T05:05:13.561Z,4584
2018-07-23T05:05:54.164Z,4616
2018-07-23T05:06:34.732Z,4656
2018-07-23T05:07:15.294Z,4688
2018-07-23T05:07:55.855Z,4720
2018-07-23T05:08:36.454Z,4752
2018-07-23T05:09:16.981Z,4780
2018-07-23T05:09:57.546Z,4800
2018-07-23T05:10:38.113Z,4816
2018-07-23T05:11:18.676Z,4828
2018-07-23T05:11:59.259Z,4840
2018-07-23T05:12:39.821Z,4840
2018-07-23T05:13:20.382Z,4844
2018-07-23T05:14:00.949Z,4856
2018-07-23T05:14:41.502Z,4856
2018-07-23T05:15:22.059Z,4860
2018-07-23T05:16:02.629Z,4872
2018-07-23T05:16:43.181Z,4880
2018-07-23T05:17:23.770Z,4896
2018-07-23T05:18:04.341Z,4908
2018-07-23T05:18:44.945Z,4920
2018-07-23T05:19:25.502Z,4952
2018-07-23T05:20:06.055Z,4956
2018-07-23T05:20:46.637Z,4980
2018-07-23T05:21:27.203Z,4996
2018-07-23T05:22:07.770Z,5016
2018-07-23T05:22:48.344Z,5032
2018-07-23T05:23:28.916Z,5060
2018-07-23T05:24:09.469Z,5096
2018-07-23T05:24:50.030Z,5120
2018-07-23T05:25:30.583Z,5160
2018-07-23T05:26:11.202Z,5200
2018-07-23T05:26:51.707Z,5252
2018-07-23T05:27:32.260Z,5292
2018-07-23T05:28:12.854Z,5336
2018-07-23T05:28:53.425Z,5380
2018-07-23T05:29:33.997Z,5424
2018-07-23T05:30:14.570Z,5460
2018-07-23T05:30:55.140Z,5504
2018-07-23T05:31:35.707Z,5552
2018-07-23T05:32:16.331Z,5592
2018-07-23T05:32:56.892Z,5640
2018-07-23T05:33:37.465Z,5692
2018-07-23T05:34:18.043Z,5732
2018-07-23T05:34:58.622Z,5780
2018-07-23T05:35:39.194Z,5824
2018-07-23T05:36:20.167Z,5864
2018-07-23T05:37:00.855Z,5904
2018-07-23T05:37:41.419Z,7064
2018-07-23T05:38:22.005Z,19840
2018-07-23T05:39:02.591Z,38080
2018-07-23T05:39:43.120Z,54784
2018-07-23T05:40:23.687Z,64000
2018-07-23T05:41:04.250Z,65024
2018-07-23T05:41:44.834Z,65696
2018-07-23T05:42:25.391Z,66592
2018-07-23T05:43:05.952Z,66656
2018-07-23T05:43:46.519Z,67296
2018-07-23T05:44:27.081Z,68192
2018-07-23T05:45:07.649Z,68544
2018-07-23T05:45:48.222Z,67840
2018-07-23T05:46:28.782Z,67552
2018-07-23T05:47:09.335Z,65920
2018-07-23T05:47:49.902Z,66528
2018-07-23T05:48:30.481Z,67680
2018-07-23T05:49:11.064Z,68544
2018-07-23T05:49:51.636Z,68832
2018-07-23T05:50:32.254Z,67744
2018-07-23T05:51:12.835Z,68384
2018-07-23T05:51:53.413Z,68672
2018-07-23T05:52:34.002Z,68736
2018-07-23T05:53:14.562Z,68288
2018-07-23T05:53:55.143Z,68416
2018-07-23T05:54:35.721Z,70528
2018-07-23T05:55:16.299Z,72288
2018-07-23T05:55:56.858Z,72896
2018-07-23T05:56:37.414Z,73184
2018-07-23T05:57:17.987Z,73184
2018-07-23T05:57:58.544Z,73248
2018-07-23T05:58:39.108Z,74752
2018-07-23T05:59:19.669Z,77856
2018-07-23T06:00:00.238Z,79296
2018-07-23T06:00:40.823Z,78048
2018-07-23T06:01:21.401Z,76704
2018-07-23T06:02:01.956Z,77152
2018-07-23T06:02:42.528Z,78720
2018-07-23T06:03:23.105Z,79072
2018-07-23T06:04:03.679Z,78304
2018-07-23T06:04:44.471Z,77792
2018-07-23T06:05:25.236Z,79936
2018-07-23T06:06:05.814Z,80896
2018-07-23T06:06:46.514Z,81792
2018-07-23T06:07:27.052Z,81344
2018-07-23T06:08:07.636Z,80256
2018-07-23T06:08:48.218Z,80192
2018-07-23T06:09:28.784Z,80000
2018-07-23T06:10:09.377Z,79424
2018-07-23T06:10:49.949Z,77024
2018-07-23T06:11:30.535Z,75904
2018-07-23T06:12:11.113Z,76768
2018-07-23T06:12:51.693Z,76768
2018-07-23T06:13:32.362Z,78048
2018-07-23T06:14:12.913Z,80960
2018-07-23T06:14:53.492Z,80608
2018-07-23T06:15:34.083Z,80160
2018-07-23T06:16:14.658Z,77216
2018-07-23T06:16:55.228Z,76896
2018-07-23T06:17:35.827Z,79040
2018-07-23T06:18:16.403Z,82400
2018-07-23T06:18:56.976Z,82848
2018-07-23T06:19:37.554Z,82592
2018-07-23T06:20:18.129Z,82784
2018-07-23T06:20:58.700Z,81600
2018-07-23T06:21:39.272Z,79392
2018-07-23T06:22:19.855Z,78112
2018-07-23T06:23:00.423Z,78624
2018-07-23T06:23:41.048Z,79360
2018-07-23T06:24:21.802Z,80480
2018-07-23T06:25:02.414Z,79296
2018-07-23T06:25:43.043Z,80320
2018-07-23T06:26:23.563Z,80288
2018-07-23T06:27:04.153Z,77920
2018-07-23T06:27:44.726Z,77184
2018-07-23T06:28:25.311Z,76352
2018-07-23T06:29:05.876Z,77888
2018-07-23T06:29:46.447Z,80064
2018-07-23T06:30:27.067Z,80960
2018-07-23T06:31:07.612Z,79712
2018-07-23T06:31:48.226Z,79040
2018-07-23T06:32:28.801Z,78432
2018-07-23T06:33:09.370Z,78784
2018-07-23T06:33:49.964Z,77888
2018-07-23T06:34:30.527Z,76832
2018-07-23T06:35:11.103Z,77440
2018-07-23T06:35:51.681Z,78816
2018-07-23T06:36:32.234Z,78976
2018-07-23T06:37:12.814Z,78400
2018-07-23T06:37:53.393Z,78144
2018-07-23T06:38:33.990Z,78560
2018-07-23T06:39:14.566Z,76832
2018-07-23T06:39:55.204Z,74112
2018-07-23T06:40:35.789Z,72320
2018-07-23T06:41:16.352Z,75136
2018-07-23T06:41:56.936Z,78336
2018-07-23T06:42:37.506Z,79968
2018-07-23T06:43:18.116Z,78752
2018-07-23T06:43:58.671Z,77376
2018-07-23T06:44:39.332Z,75712
2018-07-23T06:45:19.928Z,76832
2018-07-23T06:46:00.510Z,79968
2018-07-23T06:46:41.091Z,82496
2018-07-23T06:47:21.671Z,80960
2018-07-23T06:48:02.255Z,80096
2018-07-23T06:48:42.830Z,79456
2018-07-23T06:49:23.409Z,79840
2018-07-23T06:50:03.975Z,80896
2018-07-23T06:50:44.558Z,82624
2018-07-23T06:51:25.135Z,83648
2018-07-23T06:52:05.759Z,86016
2018-07-23T06:52:46.319Z,87648
2018-07-23T06:53:27.016Z,86624
2018-07-23T06:54:07.643Z,85024
2018-07-23T06:54:48.184Z,83264
2018-07-23T06:55:28.752Z,86304
2018-07-23T06:56:09.357Z,87552
2018-07-23T06:56:49.933Z,86784
2018-07-23T06:57:30.622Z,86624
2018-07-23T06:58:11.100Z,83712
2018-07-23T06:58:51.707Z,81920
2018-07-23T06:59:32.331Z,83456
2018-07-23T07:00:12.908Z,84800
2018-07-23T07:00:53.481Z,84768
2018-07-23T07:01:34.062Z,85504
2018-07-23T07:02:14.669Z,81440
2018-07-23T07:02:55.267Z,82400
2018-07-23T07:03:35.798Z,83936
2018-07-23T07:04:16.421Z,82208
2018-07-23T07:04:57.001Z,82976
2018-07-23T07:05:37.570Z,84320
2018-07-23T07:06:18.209Z,86304
2018-07-23T07:06:58.749Z,88544
2018-07-23T07:07:39.340Z,88032
2018-07-23T07:08:19.903Z,85728
2018-07-23T07:09:00.495Z,84736
2018-07-23T07:09:41.087Z,85152
2018-07-23T07:10:21.720Z,85952
2018-07-23T07:11:02.424Z,88256
2018-07-23T07:11:42.871Z,89376
2018-07-23T07:12:23.454Z,88960
2018-07-23T07:13:04.038Z,86880
2018-07-23T07:13:44.645Z,86528
2018-07-23T07:14:25.216Z,87776
2018-07-23T07:15:05.811Z,87232
2018-07-23T07:15:46.382Z,83584
2018-07-23T07:16:26.966Z,86592
2018-07-23T07:17:07.529Z,88832
2018-07-23T07:17:48.122Z,90240
2018-07-23T07:18:28.721Z,91712
2018-07-23T07:19:09.346Z,92704
2018-07-23T07:19:49.977Z,94144
2018-07-23T07:20:30.506Z,94976
2018-07-23T07:21:11.091Z,94208
2018-07-23T07:21:51.766Z,91968
2018-07-23T07:22:32.339Z,91680
2018-07-23T07:23:12.987Z,92320
2018-07-23T07:23:53.585Z,92576
2018-07-23T07:24:34.174Z,88896
2018-07-23T07:25:15.630Z,87904
2018-07-23T07:25:56.197Z,87456
2018-07-23T07:26:36.768Z,86496
2018-07-23T07:27:17.338Z,85728
2018-07-23T07:27:57.919Z,85312
2018-07-23T07:28:38.482Z,86400
2018-07-23T07:29:19.056Z,87328
2018-07-23T07:29:59.634Z,87968
2018-07-23T07:30:40.344Z,90976
2018-07-23T07:31:20.932Z,87392
2018-07-23T07:32:01.510Z,83424
2018-07-23T07:32:42.074Z,84736
2018-07-23T07:33:22.635Z,88640
2018-07-23T07:34:03.213Z,89184
2018-07-23T07:34:43.870Z,87936
2018-07-23T07:35:24.379Z,84192
2018-07-23T07:36:04.934Z,85632
2018-07-23T07:36:45.514Z,86592
2018-07-23T07:37:26.106Z,89792
2018-07-23T07:38:06.737Z,91168
2018-07-23T07:38:47.263Z,92864
2018-07-23T07:39:27.839Z,92800
2018-07-23T07:40:08.419Z,92928
2018-07-23T07:40:49.000Z,94400
2018-07-23T07:41:29.583Z,93536
2018-07-23T07:42:10.162Z,92960
2018-07-23T07:42:50.795Z,94240
2018-07-23T07:43:31.380Z,96608
2018-07-23T07:44:11.970Z,96480
2018-07-23T07:44:52.551Z,91968
2018-07-23T07:45:33.132Z,91200
2018-07-23T07:46:13.702Z,88480
2018-07-23T07:46:54.255Z,91616
2018-07-23T07:47:34.840Z,96448
2018-07-23T07:48:15.413Z,97888
2018-07-23T07:48:56.002Z,97472
2018-07-23T07:49:36.586Z,97312
2018-07-23T07:50:17.165Z,96704
2018-07-23T07:50:57.733Z,92576
2018-07-23T07:51:38.367Z,85344
2018-07-23T07:52:18.978Z,82784
2018-07-23T07:52:59.548Z,85120
2018-07-23T07:53:40.137Z,90752
2018-07-23T07:54:20.701Z,92960
2018-07-23T07:55:01.305Z,92896
2018-07-23T07:55:41.907Z,91232
2018-07-23T07:56:22.470Z,91456
2018-07-23T07:57:03.060Z,91168
2018-07-23T07:57:43.662Z,87904
2018-07-23T07:58:24.248Z,85504
2018-07-23T07:59:04.888Z,84544
2018-07-23T07:59:45.410Z,86784
2018-07-23T08:00:25.974Z,86304
2018-07-23T08:01:06.555Z,85696
2018-07-23T08:01:47.144Z,86720
2018-07-23T08:02:27.725Z,87136
2018-07-23T08:03:08.292Z,86112
2018-07-23T08:03:48.876Z,84928
2018-07-23T08:04:29.458Z,85024
2018-07-23T08:05:10.023Z,87040
2018-07-23T08:05:50.585Z,87168
2018-07-23T08:06:31.189Z,85760
2018-07-23T08:07:11.771Z,83328
2018-07-23T08:07:52.357Z,68832
2018-07-23T08:08:32.936Z,43328
2018-07-23T08:09:13.522Z,22208
2018-07-23T08:09:54.073Z,17504
2018-07-23T08:10:34.654Z,16864
2018-07-23T08:11:15.236Z,16352
2018-07-23T08:11:55.816Z,16000
2018-07-23T08:12:36.432Z,15776
2018-07-23T08:13:16.984Z,15456
2018-07-23T08:13:57.550Z,15028
2018-07-23T08:14:38.189Z,14804
2018-07-23T08:15:18.747Z,14700
2018-07-23T08:15:59.362Z,14468
2018-07-23T08:16:39.911Z,14224
2018-07-23T08:17:20.480Z,13920
2018-07-23T08:18:01.050Z,13752
2018-07-23T08:18:41.622Z,13384
2018-07-23T08:19:22.205Z,13124
2018-07-23T08:20:02.785Z,12852
2018-07-23T08:20:43.354Z,12472
2018-07-23T08:21:23.953Z,12256
2018-07-23T08:22:04.540Z,11932
2018-07-23T08:22:45.175Z,11676
2018-07-23T08:23:25.751Z,11396
2018-07-23T08:24:06.382Z,11288
2018-07-23T08:24:46.924Z,10972
2018-07-23T08:25:27.500Z,10680
2018-07-23T08:26:08.083Z,10420
2018-07-23T08:26:48.659Z,10196
2018-07-23T08:27:29.240Z,9992
2018-07-23T08:28:09.810Z,9736
2018-07-23T08:28:50.357Z,9564
2018-07-23T08:29:30.945Z,9396
2018-07-23T08:30:11.515Z,9256
2018-07-23T08:30:52.138Z,9092
2018-07-23T08:31:32.720Z,8912
2018-07-23T08:32:13.301Z,8792
2018-07-23T08:32:53.831Z,8656
2018-07-23T08:33:34.429Z,8516
2018-07-23T08:34:15.005Z,8416
2018-07-23T08:34:55.577Z,8248
2018-07-23T08:35:36.140Z,8156
2018-07-23T08:36:16.747Z,8024
2018-07-23T08:36:57.316Z,7912
2018-07-23T08:37:37.916Z,7800
2018-07-23T08:38:18.487Z,7712
2018-07-23T08:38:59.058Z,7640
2018-07-23T08:39:39.659Z,7548
2018-07-23T08:40:20.274Z,7428
2018-07-23T08:41:00.896Z,7316
2018-07-23T08:41:41.513Z,7228
2018-07-23T08:42:22.099Z,7128
2018-07-23T08:43:02.724Z,7064
2018-07-23T08:43:43.253Z,6976
2018-07-23T08:44:23.835Z,6880
2018-07-23T08:45:04.524Z,6800
2018-07-23T08:45:44.996Z,6712
2018-07-23T08:46:25.577Z,6652
2018-07-23T08:47:06.185Z,6596
2018-07-23T08:47:46.749Z,6528
2018-07-23T08:48:27.381Z,6468
2018-07-23T08:49:07.900Z,6400
2018-07-23T08:49:48.474Z,6304
2018-07-23T08:50:29.050Z,6288
2018-07-23T08:51:09.650Z,6232
2018-07-23T08:51:50.196Z,6068
2018-07-23T08:52:30.763Z,6132
2018-07-23T08:53:11.335Z,6080
2018-07-23T08:53:51.903Z,6024
2018-07-23T08:54:32.447Z,5928
2018-07-23T08:55:13.019Z,5872
2018-07-23T08:55:53.542Z,5812
2018-07-23T08:56:34.265Z,5720
2018-07-23T08:57:14.852Z,5672
2018-07-23T08:57:55.396Z,5572
2018-07-23T08:58:36.030Z,5588
2018-07-23T08:59:16.595Z,5584
2018-07-23T08:59:57.166Z,5512
2018-07-23T09:00:37.750Z,5336
2018-07-23T09:01:18.320Z,5432
2018-07-23T09:01:58.902Z,5360
2018-07-23T09:02:39.466Z,5352
2018-07-23T09:03:20.037Z,5252
2018-07-23T09:04:00.623Z,5124
2018-07-23T09:04:41.192Z,5080
2018-07-23T09:05:21.750Z,5048
2018-07-23T09:06:02.313Z,4964
2018-07-23T09:06:42.905Z,4932
2018-07-23T09:07:23.469Z,4864
2018-07-23T09:08:04.054Z,4820
2018-07-23T09:08:44.660Z,4792
2018-07-23T09:09:25.204Z,4744
2018-07-23T09:10:05.790Z,4712
2018-07-23T09:10:46.343Z,4668
2018-07-23T09:11:26.942Z,4628
2018-07-23T09:12:07.495Z,4636
2018-07-23T09:12:48.062Z,4580
2018-07-23T09:13:28.630Z,4600
2018-07-23T09:14:09.199Z,4548